Aérodrome :
LOGIN :

S'inscrire | Disclaimer

   EN    FR    IT 

 










Légende :    VFR   VFR Marginal   IFR   IFR Intensif   IFR Très Intensif
Visi : 
Plafond : 
>= 8 km
>= 3000ft
5 à 8 km
1000 à 3000 ft
1500m à 5 km
500 à 1000 ft
800 à 1500m
200 à 500 ft
< 800m
< 200 ft
Symboles :   Orages  Brouillard  Fortes neiges  Fortes précipitations  Vent > 20 kt
SIGMETs :   Divers  Orages  Givrage  Turbulence  Onde Orograph.  Cendres Volcan.






- Altitude de l'aérodrome : 256 ft
- Code IATA : CFR


LFRK - Caen

DERNIER METAR :
  • 170700Z AUTO 13003KT 0900 R31/0900U -RA FG ////// 02/02 Q1009

METARs EXPIRÉS :
  • 170630Z AUTO 13004KT 1200 0900 R31/0900N BCFG BKN049 OVC170 03/03 Q1009 TEMPO 0500 FG VV///
  • 170600Z AUTO 15002KT 2200 R31/1000U BR BKN047 OVC170 03/03 Q1009 TEMPO 0500 FG VV///
  • 170530Z AUTO 22001KT 5000 BR NSC 03/03 Q1009 TEMPO 0500 FG VV///
  • 170500Z AUTO 13003KT 0900 R31/0900U FG NSC 02/02 Q1009
  • 170430Z AUTO 16001KT 2200 1400 R31/1400D BR NSC 03/03 Q1009

TAF TAF LFRK
Valide du 17 à 06h jusqu'au 17 à 15h UTC


170500Z 1706/1715 VRB03KT 9999 SCT030
TEMPO 1706/1710 3000 BR BKN003
PROB40
TEMPO 1706/1709 0500 FG VV///
TEMPO 1710/1714 BKN010
Météo : +33 2 31 26 68 11



MET'MAP, la Météo Aéronautique d'un coup d'oeil ! - Copyright ORBIFLY Décembre 2007 - Disclaimer

ORBIFLY MET'MAP TEAM :

Programmation & Développement : Alexandra Zaïnal
Conception & Développement : Baudouin d'Aumeries
Co-Programmation & Développement : Marc-Olivier Méhu
Soutien technique & logistique : Manuel Goepfert

Contact : metmap@orbifly.com




SOURCES & CREDITS :

   NOAA